createdAt,value
2018-12-14T00:00:02.333Z,101915.49
2018-12-14T00:01:08.259Z,101912.53
2018-12-14T00:02:15.265Z,101909.96
2018-12-14T00:03:20.683Z,101911.27
2018-12-14T00:04:26.177Z,101909.13
2018-12-14T00:05:31.987Z,101909.88
2018-12-14T00:06:37.628Z,101914.93
2018-12-14T00:07:43.163Z,101907.30
2018-12-14T00:08:48.663Z,101912.81
2018-12-14T00:09:54.060Z,101911.23
2018-12-14T00:11:00.760Z,101914.23
2018-12-14T00:12:06.458Z,101915.54
2018-12-14T00:13:11.879Z,101915.54
2018-12-14T00:14:17.444Z,101914.19
2018-12-14T00:15:22.981Z,101916.76
2018-12-14T00:16:28.622Z,101910.85
2018-12-14T00:17:34.139Z,101914.13
2018-12-14T00:18:39.580Z,101912.53
2018-12-14T00:19:45.141Z,101912.92
2018-12-14T00:20:50.640Z,101912.97
2018-12-14T00:21:56.078Z,101914.23
2018-12-14T00:23:01.880Z,101913.66
2018-12-14T00:24:07.444Z,101913.94
2018-12-14T00:25:13.102Z,101917.78
2018-12-14T00:26:18.589Z,101917.41
2018-12-14T00:27:24.167Z,101913.80
2018-12-14T00:28:29.614Z,101915.91
2018-12-14T00:29:35.131Z,101915.06
2018-12-14T00:30:40.823Z,101913.62
2018-12-14T00:31:46.323Z,101922.14
2018-12-14T00:32:51.835Z,101920.12
2018-12-14T00:33:57.392Z,101917.22
2018-12-14T00:35:02.909Z,101918.91
2018-12-14T00:36:08.459Z,101914.60
2018-12-14T00:37:13.879Z,101920.51
2018-12-14T00:38:19.319Z,101918.02
2018-12-14T00:39:24.984Z,101914.69
2018-12-14T00:40:30.575Z,101920.50
2018-12-14T00:41:36.079Z,101919.66
2018-12-14T00:42:41.531Z,101913.71
2018-12-14T00:43:46.961Z,101907.80
2018-12-14T00:44:52.404Z,101920.08
2018-12-14T00:45:57.967Z,101914.08
2018-12-14T00:47:03.368Z,101920.45
2018-12-14T00:48:08.915Z,101916.66
2018-12-14T00:49:14.861Z,101914.60
2018-12-14T00:50:20.371Z,101914.23
2018-12-14T00:51:25.799Z,101911.74
2018-12-14T00:52:31.311Z,101914.69
2018-12-14T00:53:36.791Z,101914.69
2018-12-14T00:54:42.300Z,101917.18
2018-12-14T00:55:48.072Z,101916.10
2018-12-14T00:56:53.704Z,101921.02
2018-12-14T00:57:59.139Z,101920.17
2018-12-14T00:59:08.921Z,101918.30
2018-12-14T01:00:14.471Z,101920.50
2018-12-14T01:01:20.047Z,101920.08
2018-12-14T01:02:29.457Z,101927.25
2018-12-14T01:03:35.392Z,101923.50
2018-12-14T01:04:40.935Z,101926.36
2018-12-14T01:05:46.539Z,101921.30
2018-12-14T01:06:52.032Z,101921.34
2018-12-14T01:07:57.452Z,101930.20
2018-12-14T01:09:03.109Z,101920.17
2018-12-14T01:10:08.700Z,101921.48
2018-12-14T01:11:14.139Z,101924.90
2018-12-14T01:12:19.686Z,101925.75
2018-12-14T01:13:25.128Z,101923.27
2018-12-14T01:14:30.563Z,101924.48
2018-12-14T01:15:36.152Z,101928.28
2018-12-14T01:16:41.691Z,101931.22
2018-12-14T01:17:47.186Z,101919.85
2018-12-14T01:18:52.721Z,101928.70
2018-12-14T01:19:58.299Z,101925.33
2018-12-14T01:21:03.883Z,101926.59
2018-12-14T01:22:09.591Z,101929.17
2018-12-14T01:23:14.979Z,101923.55
2018-12-14T01:24:20.403Z,101924.81
2018-12-14T01:25:25.842Z,101925.55
2018-12-14T01:26:31.338Z,101925.55
2018-12-14T01:27:36.879Z,101929.08
2018-12-14T01:28:42.366Z,101929.36
2018-12-14T01:29:47.750Z,101930.67
2018-12-14T01:30:53.218Z,101932.35
2018-12-14T01:31:58.607Z,101935.25
2018-12-14T01:33:04.051Z,101933.09
2018-12-14T01:34:09.482Z,101933.16
2018-12-14T01:35:15.027Z,101938.26
2018-12-14T01:36:20.450Z,101936.56
2018-12-14T01:37:26.011Z,101937.41
2018-12-14T01:38:31.520Z,101933.48
2018-12-14T01:39:37.068Z,101931.46
2018-12-14T01:40:42.542Z,101936.01
2018-12-14T01:41:47.997Z,101937.36
2018-12-14T01:42:53.475Z,101935.69
2018-12-14T01:43:58.857Z,101936.10
2018-12-14T01:45:04.677Z,101934.14
2018-12-14T01:46:10.162Z,101939.66
2018-12-14T01:47:15.605Z,101938.21
2018-12-14T01:48:21.093Z,101936.61
2018-12-14T01:49:26.534Z,101939.61
2018-12-14T01:50:31.950Z,101941.30
2018-12-14T01:51:37.359Z,101937.93
2018-12-14T01:52:43.035Z,101934.97
2018-12-14T01:53:48.561Z,101932.07
2018-12-14T01:54:54.248Z,101935.40
2018-12-14T01:55:59.947Z,101925.23
2018-12-14T01:57:05.675Z,101929.02
2018-12-14T01:58:11.084Z,101923.69
2018-12-14T01:59:16.578Z,101927.34
2018-12-14T02:00:22.071Z,101928.23
2018-12-14T02:01:27.502Z,101933.81
2018-12-14T02:02:33.022Z,101927.11
2018-12-14T02:03:38.439Z,101925.51
2018-12-14T02:04:44.095Z,101922.98
2018-12-14T02:05:49.546Z,101926.02
2018-12-14T02:06:55.236Z,101926.44
2018-12-14T02:08:00.744Z,101923.50
2018-12-14T02:09:07.926Z,101927.20
2018-12-14T02:10:13.392Z,101927.95
2018-12-14T02:11:18.975Z,101923.64
2018-12-14T02:12:24.630Z,101922.47
2018-12-14T02:13:30.128Z,101921.72
2018-12-14T02:14:35.576Z,101925.09
2018-12-14T02:15:41.028Z,101926.50
2018-12-14T02:16:46.496Z,101922.66
2018-12-14T02:17:52.272Z,101918.02
2018-12-14T02:18:57.718Z,101918.63
2018-12-14T02:20:03.241Z,101914.78
2018-12-14T02:21:08.607Z,101917.59
2018-12-14T02:22:14.047Z,101918.48
2018-12-14T02:23:19.522Z,101912.81
2018-12-14T02:24:25.161Z,101915.73
2018-12-14T02:25:30.837Z,101915.73
2018-12-14T02:26:36.587Z,101921.72
2018-12-14T02:27:42.155Z,101914.55
2018-12-14T02:28:47.583Z,101913.20
2018-12-14T02:29:53.271Z,101914.22
2018-12-14T02:30:58.836Z,101915.91
2018-12-14T02:32:04.516Z,101915.20
2018-12-14T02:33:10.388Z,101917.64
2018-12-14T02:34:15.878Z,101916.84
2018-12-14T02:35:21.380Z,101912.48
2018-12-14T02:36:27.116Z,101917.59
2018-12-14T02:37:32.875Z,101913.84
2018-12-14T02:38:38.460Z,101913.09
2018-12-14T02:39:43.930Z,101914.22
2018-12-14T02:40:49.480Z,101907.85
2018-12-14T02:41:54.875Z,101912.63
2018-12-14T02:43:00.570Z,101908.79
2018-12-14T02:44:06.122Z,101908.75
2018-12-14T02:45:11.530Z,101912.02
2018-12-14T02:46:17.238Z,101910.89
2018-12-14T02:47:22.776Z,101906.21
2018-12-14T02:48:28.272Z,101908.27
2018-12-14T02:49:34.118Z,101909.91
2018-12-14T02:50:39.649Z,101914.13
2018-12-14T02:51:45.155Z,101908.14
2018-12-14T02:52:50.584Z,101907.38
2018-12-14T02:53:56.009Z,101897.64
2018-12-14T02:55:01.512Z,101902.61
2018-12-14T02:56:06.982Z,101901.86
2018-12-14T02:57:12.636Z,101903.50
2018-12-14T02:58:18.169Z,101899.27
2018-12-14T02:59:23.630Z,101900.55
2018-12-14T03:00:29.058Z,101901.02
2018-12-14T03:01:34.476Z,101896.38
2018-12-14T03:02:40.082Z,101898.90
2018-12-14T03:03:45.694Z,101898.95
2018-12-14T03:04:51.084Z,101899.33
2018-12-14T03:05:56.588Z,101895.58
2018-12-14T03:07:02.100Z,101897.31
2018-12-14T03:08:07.648Z,101896.38
2018-12-14T03:09:13.430Z,101905.18
2018-12-14T03:10:18.892Z,101894.50
2018-12-14T03:11:24.288Z,101894.64
2018-12-14T03:12:29.852Z,101892.95
2018-12-14T03:13:35.369Z,101891.18
2018-12-14T03:14:41.423Z,101885.69
2018-12-14T03:15:46.851Z,101893.38
2018-12-14T03:16:52.430Z,101895.48
2018-12-14T03:17:57.899Z,101891.70
2018-12-14T03:19:03.344Z,101890.09
2018-12-14T03:20:09.486Z,101894.22
2018-12-14T03:21:14.928Z,101892.11
2018-12-14T03:22:20.727Z,101891.31
2018-12-14T03:23:26.112Z,101889.25
2018-12-14T03:24:32.502Z,101897.09
2018-12-14T03:25:37.962Z,101893.34
2018-12-14T03:26:43.425Z,101893.84
2018-12-14T03:27:48.812Z,101890.89
2018-12-14T03:28:54.316Z,101890.42
2018-12-14T03:29:59.783Z,101891.64
2018-12-14T03:31:05.324Z,101893.28
2018-12-14T03:32:10.760Z,101893.30
2018-12-14T03:33:16.330Z,101894.22
2018-12-14T03:34:21.846Z,101894.56
2018-12-14T03:35:27.325Z,101895.44
2018-12-14T03:36:32.700Z,101891.09
2018-12-14T03:37:38.191Z,101888.61
2018-12-14T03:38:43.628Z,101897.59
2018-12-14T03:39:49.058Z,101892.03
2018-12-14T03:40:54.502Z,101894.97
2018-12-14T03:42:00.279Z,101893.30
2018-12-14T03:43:05.720Z,101895.34
2018-12-14T03:44:11.197Z,101893.71
2018-12-14T03:45:16.785Z,101892.78
2018-12-14T03:46:22.259Z,101888.23
2018-12-14T03:47:27.789Z,101890.75
2018-12-14T03:48:33.200Z,101893.19
2018-12-14T03:49:38.837Z,101892.21
2018-12-14T03:50:44.219Z,101893.15
2018-12-14T03:51:49.671Z,101889.35
2018-12-14T03:52:55.095Z,101885.09
2018-12-14T03:54:00.713Z,101888.42
2018-12-14T03:55:06.798Z,101886.12
2018-12-14T03:56:12.308Z,101894.55
2018-12-14T03:57:17.797Z,101889.41
2018-12-14T03:58:23.465Z,101886.45
2018-12-14T03:59:28.903Z,101886.50
2018-12-14T04:00:34.365Z,101889.92
2018-12-14T04:01:39.775Z,101888.14
2018-12-14T04:02:45.276Z,101890.71
2018-12-14T04:03:50.651Z,101888.65
2018-12-14T04:04:56.102Z,101889.82
2018-12-14T04:06:01.740Z,101893.16
2018-12-14T04:07:07.464Z,101895.16
2018-12-14T04:08:13.059Z,101900.22
2018-12-14T04:09:18.685Z,101902.61
2018-12-14T04:10:24.222Z,101904.51
2018-12-14T04:11:29.667Z,101899.36
2018-12-14T04:12:41.242Z,101897.59
2018-12-14T04:13:42.844Z,101898.94
2018-12-14T04:14:48.260Z,101904.83
2018-12-14T04:15:53.684Z,101908.20
2018-12-14T04:16:59.107Z,101898.52
2018-12-14T04:18:04.688Z,101901.52
2018-12-14T04:19:10.148Z,101903.00
2018-12-14T04:20:15.728Z,101901.17
2018-12-14T04:21:21.163Z,101904.16
2018-12-14T04:22:26.798Z,101905.11
2018-12-14T04:23:32.238Z,101903.89
2018-12-14T04:24:37.717Z,101900.47
2018-12-14T04:25:43.355Z,101901.73
2018-12-14T04:26:48.815Z,101897.94
2018-12-14T04:27:54.592Z,101904.27
2018-12-14T04:29:00.125Z,101905.95
2018-12-14T04:30:06.726Z,101902.21
2018-12-14T04:31:12.267Z,101898.73
2018-12-14T04:32:17.764Z,101904.26
2018-12-14T04:33:23.298Z,101898.78
2018-12-14T04:34:28.806Z,101899.02
2018-12-14T04:35:34.377Z,101901.02
2018-12-14T04:36:39.884Z,101902.70
2018-12-14T04:37:45.384Z,101903.64
2018-12-14T04:38:50.908Z,101901.59
2018-12-14T04:39:56.383Z,101903.12
2018-12-14T04:41:02.218Z,101904.91
2018-12-14T04:42:07.807Z,101905.33
2018-12-14T04:43:13.317Z,101910.76
2018-12-14T04:44:18.946Z,101906.48
2018-12-14T04:45:24.496Z,101914.02
2018-12-14T04:46:31.321Z,101913.56
2018-12-14T04:47:36.739Z,101915.97
2018-12-14T04:48:42.311Z,101923.04
2018-12-14T04:49:48.075Z,101916.29
2018-12-14T04:50:53.549Z,101913.52
2018-12-14T04:51:59.002Z,101917.25
2018-12-14T04:53:04.456Z,101920.73
2018-12-14T04:54:09.850Z,101919.09
2018-12-14T04:55:15.405Z,101916.77
2018-12-14T04:56:20.812Z,101917.19
2018-12-14T04:57:26.210Z,101913.72
2018-12-14T04:58:31.870Z,101914.09
2018-12-14T04:59:37.366Z,101912.72
2018-12-14T05:00:42.968Z,101917.89
2018-12-14T05:01:48.454Z,101914.52
2018-12-14T05:02:53.902Z,101915.03
2018-12-14T05:03:59.330Z,101917.19
2018-12-14T05:05:05.077Z,101913.46
2018-12-14T05:06:10.665Z,101918.52
2018-12-14T05:07:16.105Z,101915.03
2018-12-14T05:08:21.534Z,101913.62
2018-12-14T05:09:26.953Z,101914.61
2018-12-14T05:10:32.442Z,101912.09
2018-12-14T05:11:39.264Z,101913.83
2018-12-14T05:12:45.027Z,101907.13
2018-12-14T05:13:50.474Z,101916.82
2018-12-14T05:14:56.047Z,101916.09
2018-12-14T05:16:01.547Z,101910.36
2018-12-14T05:17:07.053Z,101914.98
2018-12-14T05:18:12.624Z,101913.78
2018-12-14T05:19:18.000Z,101913.78
2018-12-14T05:20:23.508Z,101914.56
2018-12-14T05:21:28.928Z,101912.04
2018-12-14T05:22:34.581Z,101910.82
2018-12-14T05:23:40.065Z,101913.72
2018-12-14T05:24:45.536Z,101916.31
2018-12-14T05:25:50.988Z,101915.03
2018-12-14T05:26:56.858Z,101916.36
2018-12-14T05:28:02.301Z,101918.88
2018-12-14T05:29:07.892Z,101922.92
2018-12-14T05:30:13.643Z,101922.61
2018-12-14T05:31:19.058Z,101919.72
2018-12-14T05:32:24.472Z,101917.14
2018-12-14T05:33:29.886Z,101920.14
2018-12-14T05:34:35.473Z,101922.61
2018-12-14T05:35:40.858Z,101918.36
2018-12-14T05:36:46.336Z,101925.66
2018-12-14T05:37:51.724Z,101927.67
2018-12-14T05:38:57.203Z,101926.88
2018-12-14T05:40:02.743Z,101927.41
2018-12-14T05:41:08.199Z,101928.14
2018-12-14T05:42:13.637Z,101924.20
2018-12-14T05:43:19.055Z,101922.05
2018-12-14T05:44:24.535Z,101923.27
2018-12-14T05:45:30.158Z,101923.56
2018-12-14T05:46:35.597Z,101928.93
2018-12-14T05:47:41.274Z,101925.57
2018-12-14T05:48:46.811Z,101923.00
2018-12-14T05:49:52.215Z,101930.45
2018-12-14T05:50:57.846Z,101927.03
2018-12-14T05:52:03.346Z,101929.88
2018-12-14T05:53:08.752Z,101934.09
2018-12-14T05:54:14.333Z,101927.61
2018-12-14T05:55:19.987Z,101932.78
2018-12-14T05:56:25.993Z,101935.19
2018-12-14T05:57:31.488Z,101931.88
2018-12-14T05:58:38.606Z,101932.25
2018-12-14T05:59:44.078Z,101933.41
2018-12-14T06:00:49.544Z,101930.41
2018-12-14T06:01:55.024Z,101934.40
2018-12-14T06:03:00.521Z,101942.08
2018-12-14T06:04:06.126Z,101934.61
2018-12-14T06:05:11.746Z,101937.92
2018-12-14T06:06:17.467Z,101941.87
2018-12-14T06:07:22.890Z,101939.86
2018-12-14T06:08:28.283Z,101944.86
2018-12-14T06:09:33.670Z,101942.27
2018-12-14T06:10:39.114Z,101947.39
2018-12-14T06:11:44.546Z,101946.59
2018-12-14T06:12:50.030Z,101949.06
2018-12-14T06:13:55.402Z,101950.33
2018-12-14T06:15:00.840Z,101947.08
2018-12-14T06:16:06.392Z,101949.53
2018-12-14T06:17:11.936Z,101951.81
2018-12-14T06:18:17.370Z,101948.66
2018-12-14T06:19:22.768Z,101946.95
2018-12-14T06:20:28.139Z,101949.66
2018-12-14T06:21:33.649Z,101953.61
2018-12-14T06:22:39.189Z,101956.14
2018-12-14T06:23:44.570Z,101954.88
2018-12-14T06:24:49.987Z,101947.28
2018-12-14T06:25:55.464Z,101958.59
2018-12-14T06:27:00.838Z,101955.55
2018-12-14T06:28:06.714Z,101953.98
2018-12-14T06:29:12.621Z,101959.59
2018-12-14T06:30:18.079Z,101956.55
2018-12-14T06:31:23.534Z,101959.01
2018-12-14T06:32:29.092Z,101961.84
2018-12-14T06:33:34.572Z,101961.38
2018-12-14T06:34:39.998Z,101957.23
2018-12-14T06:35:45.479Z,101964.55
2018-12-14T06:36:51.803Z,101958.28
2018-12-14T06:37:57.287Z,101958.64
2018-12-14T06:39:04.747Z,101962.07
2018-12-14T06:40:10.138Z,101960.45
2018-12-14T06:41:15.549Z,101960.86
2018-12-14T06:42:21.156Z,101966.08
2018-12-14T06:43:26.654Z,101960.08
2018-12-14T06:44:32.094Z,101964.82
2018-12-14T06:45:37.526Z,101956.30
2018-12-14T06:46:42.932Z,101959.28
2018-12-14T06:47:48.307Z,101959.41
2018-12-14T06:48:53.700Z,101965.29
2018-12-14T06:49:59.164Z,101960.13
2018-12-14T06:51:05.020Z,101963.25
2018-12-14T06:52:10.528Z,101969.56
2018-12-14T06:53:16.024Z,101964.09
2018-12-14T06:54:21.418Z,101976.36
2018-12-14T06:55:27.058Z,101966.72
2018-12-14T06:56:32.451Z,101971.67
2018-12-14T06:57:37.898Z,101967.40
2018-12-14T06:58:43.424Z,101972.55
2018-12-14T06:59:48.918Z,101971.36
2018-12-14T07:00:54.319Z,101975.09
2018-12-14T07:01:59.971Z,101972.14
2018-12-14T07:03:05.524Z,101974.84
2018-12-14T07:04:11.011Z,101981.09
2018-12-14T07:05:16.528Z,101975.66
2018-12-14T07:06:21.984Z,101970.34
2018-12-14T07:07:27.403Z,101977.46
2018-12-14T07:08:34.364Z,101978.77
2018-12-14T07:09:39.843Z,101976.61
2018-12-14T07:10:45.371Z,101982.52
2018-12-14T07:11:50.832Z,101984.78
2018-12-14T07:12:56.282Z,101984.84
2018-12-14T07:14:01.857Z,101991.09
2018-12-14T07:15:07.638Z,101988.52
2018-12-14T07:16:13.619Z,101984.00
2018-12-14T07:17:19.055Z,101994.52
2018-12-14T07:18:24.476Z,101989.78
2018-12-14T07:19:30.037Z,101992.67
2018-12-14T07:20:35.499Z,101995.20
2018-12-14T07:21:40.944Z,101998.20
2018-12-14T07:22:46.552Z,101998.31
2018-12-14T07:23:51.979Z,101999.41
2018-12-14T07:24:57.514Z,102001.09
2018-12-14T07:26:02.943Z,102004.98
2018-12-14T07:27:08.352Z,102004.58
2018-12-14T07:28:13.815Z,102003.27
2018-12-14T07:29:19.184Z,102011.58
2018-12-14T07:30:24.770Z,102015.73
2018-12-14T07:31:30.669Z,102013.16
2018-12-14T07:32:38.176Z,102016.58
2018-12-14T07:33:43.680Z,102012.30
2018-12-14T07:34:49.046Z,102015.85
2018-12-14T07:35:54.479Z,102013.84
2018-12-14T07:37:00.038Z,102020.84
2018-12-14T07:38:05.754Z,102019.58
2018-12-14T07:39:11.248Z,102018.95
2018-12-14T07:40:16.859Z,102019.27
2018-12-14T07:41:22.403Z,102018.38
2018-12-14T07:42:27.963Z,102022.59
2018-12-14T07:43:33.491Z,102025.28
2018-12-14T07:44:39.635Z,102026.91
2018-12-14T07:45:45.495Z,102025.33
2018-12-14T07:46:51.006Z,102018.63
2018-12-14T07:47:56.671Z,102031.80
2018-12-14T07:49:02.103Z,102033.12
2018-12-14T07:50:08.463Z,102030.00
2018-12-14T07:51:14.021Z,102030.39
2018-12-14T07:52:19.639Z,102035.01
2018-12-14T07:53:25.127Z,102038.87
2018-12-14T07:54:30.614Z,102041.28
2018-12-14T07:55:36.077Z,102038.75
2018-12-14T07:56:41.597Z,102043.55
2018-12-14T07:57:47.151Z,102046.23
2018-12-14T07:58:52.852Z,102047.14
2018-12-14T07:59:58.238Z,102050.86
2018-12-14T08:01:03.632Z,102054.23
2018-12-14T08:02:09.388Z,102050.50
2018-12-14T08:03:14.891Z,102054.19
2018-12-14T08:04:20.745Z,102053.70
2018-12-14T08:05:26.189Z,102053.34
2018-12-14T08:06:31.616Z,102054.55
2018-12-14T08:07:37.010Z,102054.66
2018-12-14T08:08:42.651Z,102050.66
2018-12-14T08:09:48.119Z,102056.34
2018-12-14T08:10:53.657Z,102056.83
2018-12-14T08:11:59.228Z,102055.98
2018-12-14T08:13:05.055Z,102061.94
2018-12-14T08:14:10.663Z,102056.18
2018-12-14T08:15:16.630Z,102060.41
2018-12-14T08:16:22.110Z,102054.98
2018-12-14T08:17:27.641Z,102055.56
2018-12-14T08:18:33.093Z,102059.36
2018-12-14T08:19:38.524Z,102054.41
2018-12-14T08:20:44.100Z,102057.47
2018-12-14T08:21:49.742Z,102062.30
2018-12-14T08:22:55.466Z,102063.62
2018-12-14T08:24:00.859Z,102060.09
2018-12-14T08:25:07.348Z,102066.95
2018-12-14T08:26:13.734Z,102066.14
2018-12-14T08:27:19.163Z,102069.14
2018-12-14T08:28:24.631Z,102067.46
2018-12-14T08:29:30.035Z,102069.16
2018-12-14T08:30:35.484Z,102069.04
2018-12-14T08:31:40.898Z,102068.31
2018-12-14T08:32:46.392Z,102073.52
2018-12-14T08:33:52.204Z,102071.73
2018-12-14T08:34:57.608Z,102075.16
2018-12-14T08:36:03.173Z,102077.69
2018-12-14T08:37:08.744Z,102079.89
2018-12-14T08:38:14.155Z,102082.10
2018-12-14T08:39:19.602Z,102081.32
2018-12-14T08:40:25.096Z,102085.53
2018-12-14T08:41:30.584Z,102083.90
2018-12-14T08:42:36.219Z,102085.22
2018-12-14T08:43:41.879Z,102091.02
2018-12-14T08:44:47.495Z,102085.80
2018-12-14T08:45:52.993Z,102085.33
2018-12-14T08:46:58.534Z,102085.42
2018-12-14T08:48:04.507Z,102082.84
2018-12-14T08:49:10.013Z,102088.91
2018-12-14T08:50:15.538Z,102084.48
2018-12-14T08:51:20.996Z,102083.63
2018-12-14T08:52:26.424Z,102082.21
2018-12-14T08:53:32.108Z,102077.94
2018-12-14T08:54:37.521Z,102085.55
2018-12-14T08:55:43.118Z,102078.65
2018-12-14T08:56:48.612Z,102083.72
2018-12-14T08:57:54.111Z,102075.03
2018-12-14T08:58:59.536Z,102082.56
2018-12-14T09:00:06.336Z,102083.93
2018-12-14T09:01:11.720Z,102089.34
2018-12-14T09:02:17.260Z,102084.29
2018-12-14T09:03:22.765Z,102084.78
2018-12-14T09:04:28.283Z,102089.88
2018-12-14T09:05:33.975Z,102092.88
2018-12-14T09:06:39.471Z,102091.32
2018-12-14T09:07:44.925Z,102087.15
2018-12-14T09:08:50.325Z,102086.84
2018-12-14T09:09:55.786Z,102087.22
2018-12-14T09:11:01.359Z,102082.62
2018-12-14T09:12:06.909Z,102085.38
2018-12-14T09:13:12.722Z,102086.59
2018-12-14T09:14:18.317Z,102085.80
2018-12-14T09:15:23.811Z,102085.27
2018-12-14T09:16:29.251Z,102085.27
2018-12-14T09:17:34.879Z,102083.22
2018-12-14T09:18:40.432Z,102085.33
2018-12-14T09:19:45.862Z,102086.21
2018-12-14T09:20:51.442Z,102083.63
2018-12-14T09:21:56.947Z,102083.16
2018-12-14T09:23:02.394Z,102094.54
2018-12-14T09:24:08.031Z,102094.42
2018-12-14T09:25:13.579Z,102091.58
2018-12-14T09:26:19.215Z,102092.06
2018-12-14T09:27:24.695Z,102092.59
2018-12-14T09:28:30.146Z,102094.81
2018-12-14T09:29:35.635Z,102099.02
2018-12-14T09:30:42.798Z,102088.32
2018-12-14T09:31:48.625Z,102091.28
2018-12-14T09:32:54.188Z,102092.06
2018-12-14T09:33:59.876Z,102094.43
2018-12-14T09:35:05.928Z,102091.75
2018-12-14T09:36:11.418Z,102095.17
2018-12-14T09:37:16.920Z,102093.48
2018-12-14T09:38:22.434Z,102100.19
2018-12-14T09:39:27.886Z,102099.92
2018-12-14T09:40:33.382Z,102098.54
2018-12-14T09:41:38.872Z,102096.48
2018-12-14T09:42:44.489Z,102097.39
2018-12-14T09:43:54.267Z,102098.29
2018-12-14T09:44:57.320Z,102102.03
2018-12-14T09:46:02.772Z,102098.22
2018-12-14T09:47:08.252Z,102107.30
2018-12-14T09:48:13.663Z,102104.30
2018-12-14T09:49:19.282Z,102107.77
2018-12-14T09:50:24.741Z,102101.55
2018-12-14T09:51:30.583Z,102100.44
2018-12-14T09:52:36.107Z,102104.30
2018-12-14T09:53:44.652Z,102107.19
2018-12-14T09:54:50.274Z,102107.30
2018-12-14T09:55:55.721Z,102107.55
2018-12-14T09:57:01.284Z,102106.12
2018-12-14T09:58:06.938Z,102106.25
2018-12-14T09:59:12.388Z,102104.08
2018-12-14T10:00:18.005Z,102108.83
2018-12-14T10:01:23.414Z,102102.94
2018-12-14T10:02:28.862Z,102110.94
2018-12-14T10:03:34.847Z,102113.47
2018-12-14T10:04:40.390Z,102105.66
2018-12-14T10:05:45.826Z,102106.61
2018-12-14T10:06:51.264Z,102106.19
2018-12-14T10:07:56.717Z,102101.60
2018-12-14T10:09:02.423Z,102096.59
2018-12-14T10:10:10.431Z,102108.83
2018-12-14T10:11:16.136Z,102102.98
2018-12-14T10:12:21.628Z,102106.92
2018-12-14T10:13:27.395Z,102105.20
2018-12-14T10:14:32.841Z,102103.87
2018-12-14T10:15:38.394Z,102106.83
2018-12-14T10:16:44.083Z,102099.34
2018-12-14T10:17:49.638Z,102102.34
2018-12-14T10:18:55.467Z,102097.70
2018-12-14T10:20:00.921Z,102091.59
2018-12-14T10:21:06.362Z,102094.91
2018-12-14T10:22:11.818Z,102100.07
2018-12-14T10:23:17.238Z,102095.33
2018-12-14T10:24:22.900Z,102092.81
2018-12-14T10:25:28.322Z,102088.17
2018-12-14T10:26:33.747Z,102089.97
2018-12-14T10:27:39.277Z,102094.59
2018-12-14T10:28:44.788Z,102094.65
2018-12-14T10:29:50.590Z,102095.91
2018-12-14T10:30:55.966Z,102093.38
2018-12-14T10:32:01.464Z,102091.59
2018-12-14T10:33:06.931Z,102092.02
2018-12-14T10:34:12.580Z,102089.33
2018-12-14T10:35:18.130Z,102087.74
2018-12-14T10:36:23.542Z,102086.23
2018-12-14T10:37:29.059Z,102081.22
2018-12-14T10:38:34.579Z,102087.59
2018-12-14T10:39:40.146Z,102085.48
2018-12-14T10:40:45.932Z,102089.59
2018-12-14T10:41:51.397Z,102085.28
2018-12-14T10:42:56.886Z,102086.69
2018-12-14T10:44:07.402Z,102090.12
2018-12-14T10:45:10.155Z,102083.75
2018-12-14T10:46:15.759Z,102082.38
2018-12-14T10:47:21.414Z,102081.58
2018-12-14T10:48:26.859Z,102078.25
2018-12-14T10:49:32.440Z,102084.89
2018-12-14T10:50:39.665Z,102072.41
2018-12-14T10:51:45.855Z,102075.09
2018-12-14T10:52:51.292Z,102077.30
2018-12-14T10:53:57.627Z,102071.55
2018-12-14T10:55:03.087Z,102075.25
2018-12-14T10:56:08.536Z,102068.75
2018-12-14T10:57:16.277Z,102077.98
2018-12-14T10:58:21.456Z,102082.24
2018-12-14T10:59:27.016Z,102071.48
2018-12-14T11:00:37.955Z,102073.36
2018-12-14T11:01:48.511Z,102078.70
2018-12-14T11:02:54.032Z,102072.52
2018-12-14T11:03:59.492Z,102079.69
2018-12-14T11:05:05.251Z,102070.31
2018-12-14T11:06:10.695Z,102075.19
2018-12-14T11:07:16.263Z,102079.36
2018-12-14T11:08:21.752Z,102073.42
2018-12-14T11:09:27.203Z,102078.94
2018-12-14T11:10:37.188Z,102073.08
2018-12-14T11:11:42.695Z,102075.15
2018-12-14T11:12:48.267Z,102072.70
2018-12-14T11:13:53.808Z,102078.20
2018-12-14T11:14:59.296Z,102069.72
2018-12-14T11:16:04.858Z,102071.81
2018-12-14T11:17:10.279Z,102075.05
2018-12-14T11:18:15.893Z,102073.08
2018-12-14T11:19:21.374Z,102071.39
2018-12-14T11:20:26.856Z,102068.97
2018-12-14T11:21:32.315Z,102065.64
2018-12-14T11:22:37.814Z,102062.36
2018-12-14T11:23:43.587Z,102063.30
2018-12-14T11:24:49.103Z,102058.75
2018-12-14T11:25:54.547Z,102062.73
2018-12-14T11:27:00.083Z,102064.76
2018-12-14T11:28:05.728Z,102065.83
2018-12-14T11:29:11.377Z,102057.95
2018-12-14T11:30:17.286Z,102058.59
2018-12-14T11:31:22.771Z,102057.94
2018-12-14T11:32:28.144Z,102058.19
2018-12-14T11:33:34.505Z,102060.11
2018-12-14T11:34:40.406Z,102061.08
2018-12-14T11:35:45.851Z,102059.48
2018-12-14T11:36:51.395Z,102067.41
2018-12-14T11:37:56.918Z,102058.92
2018-12-14T11:39:02.523Z,102057.23
2018-12-14T11:40:09.783Z,102059.85
2018-12-14T11:42:45.276Z,102053.55
2018-12-14T11:43:50.679Z,102050.13
2018-12-14T11:44:56.078Z,102055.53
2018-12-14T11:46:01.695Z,102062.45
2018-12-14T11:47:07.076Z,102061.59
2018-12-14T11:48:12.511Z,102054.64
2018-12-14T11:49:18.026Z,102052.58
2018-12-14T11:50:23.480Z,102052.44
2018-12-14T11:51:29.036Z,102053.58
2018-12-14T11:52:34.418Z,102053.44
2018-12-14T11:53:40.633Z,102049.52
2018-12-14T11:54:46.127Z,102059.97
2018-12-14T11:55:51.959Z,102058.23
2018-12-14T11:56:57.419Z,102054.02
2018-12-14T11:58:02.942Z,102055.41
2018-12-14T11:59:08.331Z,102058.38
2018-12-14T12:00:15.607Z,102057.81
2018-12-14T12:01:21.276Z,102058.94
2018-12-14T12:02:26.842Z,102052.04
2018-12-14T12:03:32.286Z,102054.02
2018-12-14T12:04:37.730Z,102051.48
2018-12-14T12:05:43.250Z,102056.08
2018-12-14T12:06:48.748Z,102052.66
2018-12-14T12:07:54.879Z,102050.16
2018-12-14T12:09:00.402Z,102059.73
2018-12-14T12:10:08.698Z,102055.93
2018-12-14T12:11:14.214Z,102052.52
2018-12-14T12:12:19.806Z,102050.31
2018-12-14T12:13:25.506Z,102051.67
2018-12-14T12:14:30.980Z,102054.66
2018-12-14T12:15:36.430Z,102057.58
2018-12-14T12:16:41.856Z,102049.60
2018-12-14T12:17:49.599Z,102052.09
2018-12-14T12:18:55.351Z,102049.98
2018-12-14T12:20:00.726Z,102051.63
2018-12-14T12:21:06.214Z,102049.60
2018-12-14T12:22:11.632Z,102045.95
2018-12-14T12:23:17.140Z,102046.09
2018-12-14T12:24:23.132Z,102049.37
2018-12-14T12:25:28.539Z,102047.86
2018-12-14T12:26:34.051Z,102044.29
2018-12-14T12:27:39.474Z,102049.87
2018-12-14T12:28:44.922Z,102047.80
2018-12-14T12:29:50.388Z,102049.02